Hoback Junction, Wyoming
Current Conditions -  °F | °C
As of 3:15 AM on Saturday 20 Dec 2014 (Local Time) from KJAC Reporting Station
Overcast Overcast  
Wind Chill: 25°   Ceiling: 5000
Heat Index: 30°   Visibility: 10mi
Dew Point: 28°   Wind: 5mph
Humidity: 93%   Direction: 130°SE
Pressure: 30.04"   Gusts: NA
Location:  43.4143°N, 110.582°W
Report Text: KJAC 201015Z 13004KT 10SM FEW009 SCT032 OVC050 M01/M02 A3004 RMK AO1
Loading
Personal Weather Stations






























Interactive Weather Map New forecast layout! Learn more

10-Day Weather Forecast

Advertisements
Track Severe Weather on mobile